createdAt,value
2024-05-09T00:02:20.639Z,16.02
2024-05-09T00:05:29.559Z,16.00
2024-05-09T00:08:35.243Z,15.83
2024-05-09T00:11:41.469Z,15.99
2024-05-09T00:14:47.318Z,16.14
2024-05-09T00:17:53.852Z,16.26
2024-05-09T00:21:02.665Z,16.35
2024-05-09T00:24:09.237Z,16.34
2024-05-09T00:27:14.962Z,16.43
2024-05-09T00:30:28.218Z,16.11
2024-05-09T00:33:39.539Z,16.41
2024-05-09T00:36:48.302Z,16.45
2024-05-09T00:39:53.869Z,16.56
2024-05-09T00:42:59.870Z,16.45
2024-05-09T00:46:05.870Z,16.55
2024-05-09T00:49:12.593Z,16.70
2024-05-09T00:52:21.054Z,16.29
2024-05-09T00:55:27.616Z,16.36
2024-05-09T00:58:33.538Z,16.43
2024-05-09T01:01:39.933Z,16.52
2024-05-09T01:04:45.746Z,16.21
2024-05-09T01:07:54.603Z,16.21
2024-05-09T01:11:00.320Z,16.36
2024-05-09T01:14:06.531Z,16.15
2024-05-09T01:17:12.286Z,16.31
2024-05-09T01:20:22.924Z,16.21
2024-05-09T01:23:36.237Z,16.35
2024-05-09T01:26:42.571Z,16.15
2024-05-09T01:29:48.210Z,16.19
2024-05-09T01:32:54.523Z,16.02
2024-05-09T01:36:00.285Z,15.94
2024-05-09T01:39:10.172Z,15.91
2024-05-09T01:42:16.594Z,15.91
2024-05-09T01:45:22.656Z,15.76
2024-05-09T01:48:28.352Z,15.80
2024-05-09T01:51:34.477Z,15.76
2024-05-09T01:54:42.900Z,15.73
2024-05-09T01:57:49.055Z,15.85
2024-05-09T02:00:56.260Z,15.66
2024-05-09T02:04:02.735Z,15.32
2024-05-09T02:07:08.871Z,15.46
2024-05-09T02:10:23.498Z,15.50
2024-05-09T02:13:35.864Z,15.69
2024-05-09T02:16:42.028Z,15.67
2024-05-09T02:19:47.733Z,15.85
2024-05-09T02:22:54.092Z,15.93
2024-05-09T02:26:02.473Z,16.09
2024-05-09T02:29:08.536Z,16.02
2024-05-09T02:32:14.841Z,16.19
2024-05-09T02:35:21.051Z,16.29
2024-05-09T02:38:27.141Z,16.32
2024-05-09T02:41:33.397Z,16.35
2024-05-09T02:44:39.066Z,16.40
2024-05-09T02:47:42.534Z,16.36
2024-05-09T02:50:48.239Z,16.43
2024-05-09T02:53:51.673Z,16.41
2024-05-09T02:56:59.979Z,16.47
2024-05-09T03:00:03.688Z,16.28
2024-05-09T03:03:14.063Z,16.42
2024-05-09T03:06:19.972Z,16.49
2024-05-09T03:09:26.755Z,16.58
2024-05-09T03:12:33.613Z,16.63
2024-05-09T03:15:40.208Z,16.57
2024-05-09T03:18:46.578Z,16.68
2024-05-09T03:21:49.604Z,16.82
2024-05-09T03:24:55.633Z,16.85
2024-05-09T03:28:01.358Z,16.91
2024-05-09T03:31:08.063Z,16.98
2024-05-09T03:34:14.013Z,17.05
2024-05-09T03:37:20.014Z,17.11
2024-05-09T03:40:28.988Z,17.15
2024-05-09T03:43:39.324Z,17.16
2024-05-09T03:46:44.981Z,17.18
2024-05-09T03:49:48.391Z,17.23
2024-05-09T03:52:55.181Z,17.20
2024-05-09T03:55:58.611Z,17.14
2024-05-09T03:59:06.979Z,16.88
2024-05-09T04:02:13.154Z,16.98
2024-05-09T04:05:16.732Z,16.93
2024-05-09T04:08:53.905Z,16.72
2024-05-09T04:12:23.905Z,16.73
2024-05-09T04:15:29.998Z,16.77
2024-05-09T04:18:36.177Z,16.59
2024-05-09T04:21:39.160Z,16.74
2024-05-09T04:24:45.379Z,16.82
2024-05-09T04:27:48.347Z,16.80
2024-05-09T04:30:57.160Z,16.86
2024-05-09T04:34:00.284Z,16.70
2024-05-09T04:37:07.239Z,16.65
2024-05-09T04:40:20.518Z,16.58
2024-05-09T04:43:30.272Z,16.36
2024-05-09T04:46:35.938Z,16.34
2024-05-09T04:49:45.355Z,16.24
2024-05-09T04:52:48.421Z,16.03
2024-05-09T04:55:54.435Z,16.01
2024-05-09T04:59:00.056Z,15.97
2024-05-09T05:02:06.123Z,15.81
2024-05-09T05:05:12.183Z,15.70
2024-05-09T05:08:19.599Z,15.42
2024-05-09T05:11:25.501Z,15.38
2024-05-09T05:14:29.109Z,15.30
2024-05-09T05:17:37.699Z,15.22
2024-05-09T05:20:41.676Z,15.31
2024-05-09T05:23:47.351Z,15.41
2024-05-09T05:26:50.711Z,15.42
2024-05-09T05:29:56.252Z,15.53
2024-05-09T05:33:05.220Z,15.57
2024-05-09T05:36:11.050Z,15.75
2024-05-09T05:39:17.096Z,15.98
2024-05-09T05:42:20.051Z,16.09
2024-05-09T05:45:26.073Z,16.22
2024-05-09T05:48:34.944Z,16.35
2024-05-09T05:51:38.357Z,16.24
2024-05-09T05:54:43.904Z,16.25
2024-05-09T05:57:49.991Z,16.22
2024-05-09T06:00:53.880Z,15.97
2024-05-09T06:04:02.726Z,16.09
2024-05-09T06:07:05.890Z,16.35
2024-05-09T06:10:17.588Z,16.41
2024-05-09T06:13:24.703Z,16.51
2024-05-09T06:16:30.787Z,16.64
2024-05-09T06:19:36.520Z,16.71
2024-05-09T06:22:42.643Z,16.71
2024-05-09T06:25:46.108Z,16.60
2024-05-09T06:28:52.292Z,16.59
2024-05-09T06:31:57.109Z,16.48
2024-05-09T06:35:08.849Z,16.44
2024-05-09T06:38:12.236Z,16.48
2024-05-09T06:41:18.674Z,16.48
2024-05-09T06:44:24.373Z,16.45
2024-05-09T06:47:27.985Z,16.60
2024-05-09T06:50:38.437Z,16.66
2024-05-09T06:53:43.004Z,16.87
2024-05-09T06:56:48.678Z,16.84
2024-05-09T06:59:52.415Z,16.91
2024-05-09T07:03:00.110Z,16.96
2024-05-09T07:06:10.559Z,17.15
2024-05-09T07:09:13.862Z,17.42
2024-05-09T07:12:20.070Z,17.50
2024-05-09T07:15:23.237Z,17.63
2024-05-09T07:18:29.900Z,17.63
2024-05-09T07:21:35.671Z,17.42
2024-05-09T07:24:41.792Z,17.35
2024-05-09T07:27:47.035Z,17.23
2024-05-09T07:30:53.350Z,16.96
2024-05-09T07:33:56.287Z,16.93
2024-05-09T07:37:06.299Z,17.06
2024-05-09T07:40:12.081Z,17.08
2024-05-09T07:43:23.713Z,17.10
2024-05-09T07:47:20.779Z,17.10
2024-05-09T07:51:32.820Z,16.94
2024-05-09T07:53:38.726Z,16.80
2024-05-09T07:56:47.113Z,16.88
2024-05-09T07:59:50.144Z,17.02
2024-05-09T08:02:56.391Z,17.33
2024-05-09T08:05:59.306Z,17.42
2024-05-09T08:09:13.591Z,17.28
2024-05-09T08:12:19.953Z,17.20
2024-05-09T08:15:33.292Z,17.10
2024-05-09T08:18:41.478Z,17.03
2024-05-09T08:21:48.691Z,16.97
2024-05-09T08:24:54.742Z,17.04
2024-05-09T08:28:00.518Z,16.72
2024-05-09T08:31:06.865Z,17.16
2024-05-09T08:34:13.057Z,17.33
2024-05-09T08:37:22.317Z,17.22
2024-05-09T08:40:36.316Z,17.19
2024-05-09T08:43:44.599Z,17.19
2024-05-09T08:46:48.272Z,17.18
2024-05-09T08:49:58.505Z,17.26
2024-05-09T08:53:04.379Z,17.42
2024-05-09T08:56:12.196Z,17.30
2024-05-09T08:59:23.812Z,17.39
2024-05-09T09:02:30.747Z,17.55
2024-05-09T09:05:37.272Z,17.96
2024-05-09T09:08:43.800Z,18.26
2024-05-09T09:11:52.123Z,18.24
2024-05-09T09:14:55.583Z,17.95
2024-05-09T09:18:01.979Z,18.02
2024-05-09T09:21:10.222Z,17.65
2024-05-09T09:24:22.738Z,17.56
2024-05-09T09:27:37.472Z,17.50
2024-05-09T09:30:41.642Z,17.34
2024-05-09T09:33:47.982Z,17.43
2024-05-09T09:36:56.110Z,17.30
2024-05-09T09:40:02.600Z,17.55
2024-05-09T09:43:14.557Z,17.79
2024-05-09T09:46:22.850Z,17.80
2024-05-09T09:49:26.576Z,17.91
2024-05-09T09:52:33.007Z,18.14
2024-05-09T09:55:37.503Z,18.15
2024-05-09T09:58:48.380Z,18.22
2024-05-09T10:01:51.656Z,18.19
2024-05-09T10:04:58.099Z,18.18
2024-05-09T10:08:05.427Z,18.18
2024-05-09T10:11:11.569Z,18.18
2024-05-09T10:14:20.890Z,18.45
2024-05-09T10:17:27.783Z,18.25
